Flowerfield, Illinois
Current Conditions -  °F | °C
As of 9:51 AM on Sunday 23 Nov 2014 (Local Time) from KORD Reporting Station
Light Rain Light Rain  
Wind Chill: 50°   Ceiling: 4900
Heat Index: 50°   Visibility: 10mi
Dew Point: 44°   Wind: 16mph
Humidity: 80%   Direction: 180°S
Pressure: 29.71"   Gusts: NA
Location:  41.8742°N, 88.0172°W
Report Text: KORD 231551Z 18014KT 10SM -RA BKN049 BKN070 OVC090 10/07 A2971 RMK AO2 RAB1459E25B44 SLP062 P0001 T01000067
Loading
Personal Weather Stations






























Interactive Weather Map New forecast layout! Learn more

10-Day Weather Forecast

Advertisements
Track Severe Weather on mobile